Warren, Texas
Current Conditions -  °F | °C
As of 7:35 PM on Thursday 27 Nov 2014 (Local Time) from KJAS Reporting Station
Clear Clear  
Wind Chill: 43°   Ceiling: Unl
Heat Index: 43°   Visibility: 10mi
Dew Point: 38°   Wind: 0mph
Humidity: 83%   Direction: NA
Pressure: 30.46"   Gusts: NA
Location:  30.62°N, 94.41°W
Report Text: KJAS 280135Z AUTO 00000KT 10SM CLR 06/03 A3046 RMK AO2 T00590033
Loading
Personal Weather Stations






























Interactive Weather Map New forecast layout! Learn more

10-Day Weather Forecast

Advertisements
Track Severe Weather on mobile